sensor_id;sensor_type;location;lat;lon;timestamp;pressure;altitude;pressure_sealevel;temperature;humidity
50011;BME280;35899;50.352;19.390;2024-01-07T00:00:25;97092.80;;;-2.07;100.00
50011;BME280;35899;50.352;19.390;2024-01-07T00:03:14;97098.18;;;-2.11;100.00
50011;BME280;35899;50.352;19.390;2024-01-07T00:05:41;97100.27;;;-2.13;100.00
50011;BME280;35899;50.352;19.390;2024-01-07T00:08:07;97101.30;;;-2.13;100.00
50011;BME280;35899;50.352;19.390;2024-01-07T00:10:34;97097.23;;;-2.13;100.00
50011;BME280;35899;50.352;19.390;2024-01-07T00:13:00;97099.41;;;-2.12;100.00
50011;BME280;35899;50.352;19.390;2024-01-07T00:15:27;97100.92;;;-2.12;100.00
50011;BME280;35899;50.352;19.390;2024-01-07T00:17:54;97103.54;;;-2.14;100.00
50011;BME280;35899;50.352;19.390;2024-01-07T00:20:21;97106.39;;;-2.19;100.00
50011;BME280;35899;50.352;19.390;2024-01-07T00:22:47;97104.95;;;-2.21;100.00
50011;BME280;35899;50.352;19.390;2024-01-07T00:25:14;97106.31;;;-2.22;100.00
50011;BME280;35899;50.352;19.390;2024-01-07T00:27:40;97106.83;;;-2.22;100.00
50011;BME280;35899;50.352;19.390;2024-01-07T00:30:07;97112.91;;;-2.21;100.00
50011;BME280;35899;50.352;19.390;2024-01-07T00:32:34;97113.02;;;-2.24;100.00
50011;BME280;35899;50.352;19.390;2024-01-07T00:35:00;97112.23;;;-2.26;100.00
50011;BME280;35899;50.352;19.390;2024-01-07T00:37:27;97116.33;;;-2.27;100.00
50011;BME280;35899;50.352;19.390;2024-01-07T00:39:54;97115.09;;;-2.31;100.00
50011;BME280;35899;50.352;19.390;2024-01-07T00:42:21;97121.48;;;-2.35;100.00
50011;BME280;35899;50.352;19.390;2024-01-07T00:44:47;97116.95;;;-2.37;100.00
50011;BME280;35899;50.352;19.390;2024-01-07T00:47:13;97119.00;;;-2.37;100.00
50011;BME280;35899;50.352;19.390;2024-01-07T00:49:40;97121.59;;;-2.39;100.00
50011;BME280;35899;50.352;19.390;2024-01-07T00:52:06;97128.21;;;-2.39;100.00
50011;BME280;35899;50.352;19.390;2024-01-07T00:54:33;97127.94;;;-2.41;100.00
50011;BME280;35899;50.352;19.390;2024-01-07T00:56:59;97135.72;;;-2.41;100.00
50011;BME280;35899;50.352;19.390;2024-01-07T00:59:28;97136.48;;;-2.43;100.00
50011;BME280;35899;50.352;19.390;2024-01-07T01:01:55;97136.10;;;-2.47;100.00
50011;BME280;35899;50.352;19.390;2024-01-07T01:04:22;97138.26;;;-2.51;100.00
50011;BME280;35899;50.352;19.390;2024-01-07T01:06:48;97140.16;;;-2.53;100.00
50011;BME280;35899;50.352;19.390;2024-01-07T01:09:15;97141.55;;;-2.54;100.00
50011;BME280;35899;50.352;19.390;2024-01-07T01:11:41;97143.63;;;-2.55;100.00
50011;BME280;35899;50.352;19.390;2024-01-07T01:14:08;97142.24;;;-2.60;100.00
50011;BME280;35899;50.352;19.390;2024-01-07T01:16:34;97147.88;;;-2.61;100.00
50011;BME280;35899;50.352;19.390;2024-01-07T01:19:01;97147.98;;;-2.65;100.00
50011;BME280;35899;50.352;19.390;2024-01-07T01:21:28;97148.79;;;-2.69;100.00
50011;BME280;35899;50.352;19.390;2024-01-07T01:23:54;97154.65;;;-2.73;100.00
50011;BME280;35899;50.352;19.390;2024-01-07T01:26:21;97154.42;;;-2.77;100.00
50011;BME280;35899;50.352;19.390;2024-01-07T01:28:47;97159.77;;;-2.80;100.00
50011;BME280;35899;50.352;19.390;2024-01-07T01:31:14;97161.55;;;-2.83;100.00
50011;BME280;35899;50.352;19.390;2024-01-07T01:33:41;97157.76;;;-2.86;100.00
50011;BME280;35899;50.352;19.390;2024-01-07T01:36:08;97155.48;;;-2.90;100.00
50011;BME280;35899;50.352;19.390;2024-01-07T01:38:34;97160.20;;;-2.95;100.00
50011;BME280;35899;50.352;19.390;2024-01-07T01:41:01;97157.44;;;-2.99;100.00
50011;BME280;35899;50.352;19.390;2024-01-07T01:43:28;97156.02;;;-3.03;100.00
50011;BME280;35899;50.352;19.390;2024-01-07T01:45:56;97159.46;;;-3.05;100.00
50011;BME280;35899;50.352;19.390;2024-01-07T01:48:24;97156.15;;;-3.07;100.00
50011;BME280;35899;50.352;19.390;2024-01-07T01:50:52;97160.23;;;-3.08;100.00
50011;BME280;35899;50.352;19.390;2024-01-07T01:53:19;97157.80;;;-3.12;100.00
50011;BME280;35899;50.352;19.390;2024-01-07T01:55:46;97156.69;;;-3.16;100.00
50011;BME280;35899;50.352;19.390;2024-01-07T01:58:13;97163.16;;;-3.17;100.00
50011;BME280;35899;50.352;19.390;2024-01-07T02:00:40;97164.81;;;-3.15;100.00
50011;BME280;35899;50.352;19.390;2024-01-07T02:03:06;97167.54;;;-3.16;100.00
50011;BME280;35899;50.352;19.390;2024-01-07T02:05:33;97164.20;;;-3.18;100.00
50011;BME280;35899;50.352;19.390;2024-01-07T02:08:00;97166.79;;;-3.19;100.00
50011;BME280;35899;50.352;19.390;2024-01-07T02:10:26;97164.44;;;-3.20;100.00
50011;BME280;35899;50.352;19.390;2024-01-07T02:12:53;97167.14;;;-3.20;100.00
50011;BME280;35899;50.352;19.390;2024-01-07T02:15:19;97165.45;;;-3.20;100.00
50011;BME280;35899;50.352;19.390;2024-01-07T02:17:46;97165.77;;;-3.19;100.00
50011;BME280;35899;50.352;19.390;2024-01-07T02:20:13;97164.08;;;-3.19;100.00
50011;BME280;35899;50.352;19.390;2024-01-07T02:22:39;97167.00;;;-3.20;100.00
50011;BME280;35899;50.352;19.390;2024-01-07T02:25:06;97170.19;;;-3.20;100.00
50011;BME280;35899;50.352;19.390;2024-01-07T02:27:32;97173.08;;;-3.20;100.00
50011;BME280;35899;50.352;19.390;2024-01-07T02:29:59;97172.80;;;-3.22;100.00
50011;BME280;35899;50.352;19.390;2024-01-07T02:32:25;97175.35;;;-3.22;100.00
50011;BME280;35899;50.352;19.390;2024-01-07T02:34:52;97176.25;;;-3.25;100.00
50011;BME280;35899;50.352;19.390;2024-01-07T02:37:19;97175.62;;;-3.27;100.00
50011;BME280;35899;50.352;19.390;2024-01-07T02:39:45;97176.00;;;-3.28;100.00
50011;BME280;35899;50.352;19.390;2024-01-07T02:42:26;97175.52;;;-3.29;100.00
50011;BME280;35899;50.352;19.390;2024-01-07T02:44:52;97179.92;;;-3.29;100.00
50011;BME280;35899;50.352;19.390;2024-01-07T02:47:19;97177.39;;;-3.30;100.00
50011;BME280;35899;50.352;19.390;2024-01-07T02:49:45;97175.55;;;-3.30;100.00
50011;BME280;35899;50.352;19.390;2024-01-07T02:52:12;97179.02;;;-3.33;100.00
50011;BME280;35899;50.352;19.390;2024-01-07T02:54:41;97177.27;;;-3.37;100.00
50011;BME280;35899;50.352;19.390;2024-01-07T02:57:08;97175.08;;;-3.38;100.00
50011;BME280;35899;50.352;19.390;2024-01-07T02:59:35;97174.98;;;-3.41;100.00
50011;BME280;35899;50.352;19.390;2024-01-07T03:02:01;97181.36;;;-3.45;100.00
50011;BME280;35899;50.352;19.390;2024-01-07T03:04:28;97184.27;;;-3.46;100.00
50011;BME280;35899;50.352;19.390;2024-01-07T03:06:54;97182.94;;;-3.47;100.00
50011;BME280;35899;50.352;19.390;2024-01-07T03:09:21;97185.19;;;-3.49;100.00
50011;BME280;35899;50.352;19.390;2024-01-07T03:11:47;97187.95;;;-3.51;100.00
50011;BME280;35899;50.352;19.390;2024-01-07T03:14:14;97186.22;;;-3.50;100.00
50011;BME280;35899;50.352;19.390;2024-01-07T03:16:40;97181.34;;;-3.51;100.00
50011;BME280;35899;50.352;19.390;2024-01-07T03:19:06;97184.96;;;-3.53;100.00
50011;BME280;35899;50.352;19.390;2024-01-07T03:21:33;97181.77;;;-3.55;100.00
50011;BME280;35899;50.352;19.390;2024-01-07T03:24:00;97180.02;;;-3.59;100.00
50011;BME280;35899;50.352;19.390;2024-01-07T03:26:29;97174.83;;;-3.61;100.00
50011;BME280;35899;50.352;19.390;2024-01-07T03:28:56;97177.88;;;-3.61;100.00
50011;BME280;35899;50.352;19.390;2024-01-07T03:31:22;97182.11;;;-3.61;100.00
50011;BME280;35899;50.352;19.390;2024-01-07T03:33:49;97181.25;;;-3.61;100.00
50011;BME280;35899;50.352;19.390;2024-01-07T03:36:16;97179.59;;;-3.61;100.00
50011;BME280;35899;50.352;19.390;2024-01-07T03:38:42;97183.98;;;-3.62;100.00
50011;BME280;35899;50.352;19.390;2024-01-07T03:41:17;97179.30;;;-3.64;100.00
50011;BME280;35899;50.352;19.390;2024-01-07T03:43:47;97180.02;;;-3.66;100.00
50011;BME280;35899;50.352;19.390;2024-01-07T03:46:14;97182.23;;;-3.66;100.00
50011;BME280;35899;50.352;19.390;2024-01-07T03:48:42;97184.55;;;-3.64;100.00
50011;BME280;35899;50.352;19.390;2024-01-07T03:51:09;97189.84;;;-3.66;100.00
50011;BME280;35899;50.352;19.390;2024-01-07T03:53:35;97195.30;;;-3.68;100.00
50011;BME280;35899;50.352;19.390;2024-01-07T03:56:02;97197.59;;;-3.71;100.00
50011;BME280;35899;50.352;19.390;2024-01-07T03:58:28;97196.99;;;-3.75;100.00
50011;BME280;35899;50.352;19.390;2024-01-07T04:00:55;97195.85;;;-3.77;100.00
50011;BME280;35899;50.352;19.390;2024-01-07T04:03:21;97195.48;;;-3.76;100.00
50011;BME280;35899;50.352;19.390;2024-01-07T04:05:48;97197.18;;;-3.76;100.00
50011;BME280;35899;50.352;19.390;2024-01-07T04:08:15;97192.84;;;-3.78;100.00
50011;BME280;35899;50.352;19.390;2024-01-07T04:10:41;97196.40;;;-3.78;100.00
50011;BME280;35899;50.352;19.390;2024-01-07T04:13:08;97197.11;;;-3.80;100.00
50011;BME280;35899;50.352;19.390;2024-01-07T04:15:34;97204.23;;;-3.80;100.00
50011;BME280;35899;50.352;19.390;2024-01-07T04:18:04;97202.41;;;-3.82;100.00
50011;BME280;35899;50.352;19.390;2024-01-07T04:20:31;97206.48;;;-3.83;100.00
50011;BME280;35899;50.352;19.390;2024-01-07T04:22:58;97207.84;;;-3.83;100.00
50011;BME280;35899;50.352;19.390;2024-01-07T04:25:24;97207.75;;;-3.86;100.00
50011;BME280;35899;50.352;19.390;2024-01-07T04:27:51;97209.50;;;-3.88;100.00
50011;BME280;35899;50.352;19.390;2024-01-07T04:30:18;97212.03;;;-3.88;100.00
50011;BME280;35899;50.352;19.390;2024-01-07T04:32:44;97212.86;;;-3.88;100.00
50011;BME280;35899;50.352;19.390;2024-01-07T04:35:11;97213.85;;;-3.86;100.00
50011;BME280;35899;50.352;19.390;2024-01-07T04:37:37;97212.34;;;-3.87;100.00
50011;BME280;35899;50.352;19.390;2024-01-07T04:40:04;97210.09;;;-3.85;100.00
50011;BME280;35899;50.352;19.390;2024-01-07T04:42:31;97214.42;;;-3.83;100.00
50011;BME280;35899;50.352;19.390;2024-01-07T04:44:58;97218.69;;;-3.84;100.00
50011;BME280;35899;50.352;19.390;2024-01-07T04:47:32;97220.72;;;-3.84;100.00
50011;BME280;35899;50.352;19.390;2024-01-07T04:49:59;97223.48;;;-3.86;100.00
50011;BME280;35899;50.352;19.390;2024-01-07T04:52:26;97224.69;;;-3.87;100.00
50011;BME280;35899;50.352;19.390;2024-01-07T04:54:53;97231.15;;;-3.89;100.00
50011;BME280;35899;50.352;19.390;2024-01-07T04:57:21;97227.30;;;-3.91;100.00
50011;BME280;35899;50.352;19.390;2024-01-07T04:59:50;97223.73;;;-3.90;100.00
50011;BME280;35899;50.352;19.390;2024-01-07T05:02:16;97227.05;;;-3.95;100.00
50011;BME280;35899;50.352;19.390;2024-01-07T05:04:43;97232.67;;;-3.97;100.00
50011;BME280;35899;50.352;19.390;2024-01-07T05:07:10;97234.80;;;-4.01;100.00
50011;BME280;35899;50.352;19.390;2024-01-07T05:09:36;97238.75;;;-4.04;100.00
50011;BME280;35899;50.352;19.390;2024-01-07T05:12:03;97238.98;;;-4.07;100.00
50011;BME280;35899;50.352;19.390;2024-01-07T05:14:29;97240.16;;;-4.06;100.00
50011;BME280;35899;50.352;19.390;2024-01-07T05:16:56;97239.80;;;-4.06;100.00
50011;BME280;35899;50.352;19.390;2024-01-07T05:19:22;97238.80;;;-4.05;100.00
50011;BME280;35899;50.352;19.390;2024-01-07T05:21:49;97241.48;;;-4.05;100.00
50011;BME280;35899;50.352;19.390;2024-01-07T05:24:15;97244.67;;;-4.04;100.00
50011;BME280;35899;50.352;19.390;2024-01-07T05:26:43;97246.02;;;-4.04;100.00
50011;BME280;35899;50.352;19.390;2024-01-07T05:29:10;97247.94;;;-4.07;100.00
50011;BME280;35899;50.352;19.390;2024-01-07T05:31:38;97249.18;;;-4.09;100.00
50011;BME280;35899;50.352;19.390;2024-01-07T05:34:04;97245.46;;;-4.09;100.00
50011;BME280;35899;50.352;19.390;2024-01-07T05:36:31;97257.66;;;-4.10;100.00
50011;BME280;35899;50.352;19.390;2024-01-07T05:38:58;97257.01;;;-4.11;100.00
50011;BME280;35899;50.352;19.390;2024-01-07T05:41:25;97265.13;;;-4.12;100.00
50011;BME280;35899;50.352;19.390;2024-01-07T05:43:51;97268.71;;;-4.13;100.00
50011;BME280;35899;50.352;19.390;2024-01-07T05:46:17;97268.15;;;-4.11;100.00
50011;BME280;35899;50.352;19.390;2024-01-07T05:48:46;97269.33;;;-4.11;100.00
50011;BME280;35899;50.352;19.390;2024-01-07T05:51:13;97271.77;;;-4.14;100.00
50011;BME280;35899;50.352;19.390;2024-01-07T05:53:41;97271.16;;;-4.17;100.00
50011;BME280;35899;50.352;19.390;2024-01-07T05:56:07;97275.73;;;-4.18;100.00
50011;BME280;35899;50.352;19.390;2024-01-07T05:58:34;97277.63;;;-4.19;100.00
50011;BME280;35899;50.352;19.390;2024-01-07T06:01:00;97277.36;;;-4.22;100.00
50011;BME280;35899;50.352;19.390;2024-01-07T06:03:27;97279.78;;;-4.25;100.00
50011;BME280;35899;50.352;19.390;2024-01-07T06:05:53;97280.48;;;-4.27;100.00
50011;BME280;35899;50.352;19.390;2024-01-07T06:08:20;97281.48;;;-4.26;100.00
50011;BME280;35899;50.352;19.390;2024-01-07T06:10:47;97279.80;;;-4.25;100.00
50011;BME280;35899;50.352;19.390;2024-01-07T06:13:13;97280.03;;;-4.29;100.00
50011;BME280;35899;50.352;19.390;2024-01-07T06:15:40;97276.66;;;-4.29;100.00
50011;BME280;35899;50.352;19.390;2024-01-07T06:18:06;97280.52;;;-4.28;100.00
50011;BME280;35899;50.352;19.390;2024-01-07T06:20:33;97277.01;;;-4.30;100.00
50011;BME280;35899;50.352;19.390;2024-01-07T06:22:59;97278.53;;;-4.30;100.00
50011;BME280;35899;50.352;19.390;2024-01-07T06:25:26;97283.09;;;-4.30;100.00
50011;BME280;35899;50.352;19.390;2024-01-07T06:27:52;97284.98;;;-4.32;100.00
50011;BME280;35899;50.352;19.390;2024-01-07T06:30:19;97290.03;;;-4.39;100.00
50011;BME280;35899;50.352;19.390;2024-01-07T06:32:46;97292.80;;;-4.42;100.00
50011;BME280;35899;50.352;19.390;2024-01-07T06:35:12;97297.55;;;-4.43;100.00
50011;BME280;35899;50.352;19.390;2024-01-07T06:37:39;97302.12;;;-4.44;100.00
50011;BME280;35899;50.352;19.390;2024-01-07T06:40:05;97308.06;;;-4.45;100.00
50011;BME280;35899;50.352;19.390;2024-01-07T06:42:32;97311.98;;;-4.46;100.00
50011;BME280;35899;50.352;19.390;2024-01-07T06:44:59;97312.30;;;-4.46;100.00
50011;BME280;35899;50.352;19.390;2024-01-07T06:47:25;97314.65;;;-4.45;100.00
50011;BME280;35899;50.352;19.390;2024-01-07T06:49:52;97315.96;;;-4.43;100.00
50011;BME280;35899;50.352;19.390;2024-01-07T06:52:18;97317.96;;;-4.42;100.00
50011;BME280;35899;50.352;19.390;2024-01-07T06:54:45;97318.66;;;-4.43;100.00
50011;BME280;35899;50.352;19.390;2024-01-07T06:57:11;97322.21;;;-4.43;100.00
50011;BME280;35899;50.352;19.390;2024-01-07T06:59:37;97324.92;;;-4.43;100.00
50011;BME280;35899;50.352;19.390;2024-01-07T07:02:04;97328.84;;;-4.45;100.00
50011;BME280;35899;50.352;19.390;2024-01-07T07:04:31;97327.52;;;-4.47;100.00
50011;BME280;35899;50.352;19.390;2024-01-07T07:06:58;97328.77;;;-4.50;100.00
50011;BME280;35899;50.352;19.390;2024-01-07T07:09:24;97330.36;;;-4.53;100.00
50011;BME280;35899;50.352;19.390;2024-01-07T07:11:51;97330.13;;;-4.50;100.00
50011;BME280;35899;50.352;19.390;2024-01-07T07:14:17;97334.79;;;-4.47;100.00
50011;BME280;35899;50.352;19.390;2024-01-07T07:16:44;97335.74;;;-4.44;100.00
50011;BME280;35899;50.352;19.390;2024-01-07T07:19:10;97336.20;;;-4.41;100.00
50011;BME280;35899;50.352;19.390;2024-01-07T07:21:37;97337.48;;;-4.38;100.00
50011;BME280;35899;50.352;19.390;2024-01-07T07:24:04;97341.45;;;-4.34;100.00
50011;BME280;35899;50.352;19.390;2024-01-07T07:26:30;97342.10;;;-4.33;100.00
50011;BME280;35899;50.352;19.390;2024-01-07T07:28:57;97345.15;;;-4.33;100.00
50011;BME280;35899;50.352;19.390;2024-01-07T07:31:23;97351.57;;;-4.33;100.00
50011;BME280;35899;50.352;19.390;2024-01-07T07:33:50;97351.20;;;-4.31;100.00
50011;BME280;35899;50.352;19.390;2024-01-07T07:36:16;97355.91;;;-4.31;100.00
50011;BME280;35899;50.352;19.390;2024-01-07T07:38:43;97357.73;;;-4.29;100.00
50011;BME280;35899;50.352;19.390;2024-01-07T07:41:10;97360.56;;;-4.26;100.00
50011;BME280;35899;50.352;19.390;2024-01-07T07:43:36;97358.30;;;-4.23;100.00
50011;BME280;35899;50.352;19.390;2024-01-07T07:46:03;97360.13;;;-4.22;100.00
50011;BME280;35899;50.352;19.390;2024-01-07T07:48:30;97361.09;;;-4.19;100.00
50011;BME280;35899;50.352;19.390;2024-01-07T07:50:57;97360.70;;;-4.16;100.00
50011;BME280;35899;50.352;19.390;2024-01-07T07:53:23;97362.01;;;-4.15;100.00
50011;BME280;35899;50.352;19.390;2024-01-07T07:55:49;97366.52;;;-4.13;100.00
50011;BME280;35899;50.352;19.390;2024-01-07T07:58:16;97371.27;;;-4.13;100.00
50011;BME280;35899;50.352;19.390;2024-01-07T08:00:42;97367.74;;;-4.14;100.00
50011;BME280;35899;50.352;19.390;2024-01-07T08:03:09;97370.63;;;-4.15;100.00
50011;BME280;35899;50.352;19.390;2024-01-07T08:05:35;97372.98;;;-4.15;100.00
50011;BME280;35899;50.352;19.390;2024-01-07T08:08:02;97373.15;;;-4.15;100.00
50011;BME280;35899;50.352;19.390;2024-01-07T08:10:29;97376.04;;;-4.15;100.00
50011;BME280;35899;50.352;19.390;2024-01-07T08:12:55;97375.75;;;-4.09;100.00
50011;BME280;35899;50.352;19.390;2024-01-07T08:15:22;97375.44;;;-4.02;100.00
50011;BME280;35899;50.352;19.390;2024-01-07T08:17:48;97377.16;;;-3.96;100.00
50011;BME280;35899;50.352;19.390;2024-01-07T08:20:15;97377.77;;;-3.93;100.00
50011;BME280;35899;50.352;19.390;2024-01-07T08:22:42;97378.27;;;-3.93;100.00
50011;BME280;35899;50.352;19.390;2024-01-07T08:25:08;97382.55;;;-3.95;100.00
50011;BME280;35899;50.352;19.390;2024-01-07T08:27:35;97386.10;;;-3.94;100.00
50011;BME280;35899;50.352;19.390;2024-01-07T08:30:02;97385.07;;;-3.94;100.00
50011;BME280;35899;50.352;19.390;2024-01-07T08:32:28;97386.21;;;-3.92;100.00
50011;BME280;35899;50.352;19.390;2024-01-07T08:34:55;97385.16;;;-3.90;100.00
50011;BME280;35899;50.352;19.390;2024-01-07T08:37:21;97393.02;;;-3.86;100.00
50011;BME280;35899;50.352;19.390;2024-01-07T08:39:49;97389.83;;;-3.79;100.00
50011;BME280;35899;50.352;19.390;2024-01-07T08:42:15;97394.52;;;-3.77;100.00
50011;BME280;35899;50.352;19.390;2024-01-07T08:44:42;97394.03;;;-3.78;100.00
50011;BME280;35899;50.352;19.390;2024-01-07T08:47:13;97401.11;;;-3.77;100.00
50011;BME280;35899;50.352;19.390;2024-01-07T08:49:39;97402.03;;;-3.73;100.00
50011;BME280;35899;50.352;19.390;2024-01-07T08:52:06;97397.34;;;-3.66;100.00
50011;BME280;35899;50.352;19.390;2024-01-07T08:54:32;97401.10;;;-3.61;100.00
50011;BME280;35899;50.352;19.390;2024-01-07T08:56:59;97403.51;;;-3.55;100.00
50011;BME280;35899;50.352;19.390;2024-01-07T08:59:25;97404.74;;;-3.49;100.00
50011;BME280;35899;50.352;19.390;2024-01-07T09:01:52;97407.60;;;-3.41;100.00
50011;BME280;35899;50.352;19.390;2024-01-07T09:04:19;97405.67;;;-3.38;100.00
50011;BME280;35899;50.352;19.390;2024-01-07T09:06:45;97408.67;;;-3.37;100.00
50011;BME280;35899;50.352;19.390;2024-01-07T09:09:12;97412.51;;;-3.34;100.00
50011;BME280;35899;50.352;19.390;2024-01-07T09:11:38;97409.34;;;-3.36;100.00
50011;BME280;35899;50.352;19.390;2024-01-07T09:14:05;97412.34;;;-3.34;100.00
50011;BME280;35899;50.352;19.390;2024-01-07T09:16:32;97414.09;;;-3.36;100.00
50011;BME280;35899;50.352;19.390;2024-01-07T09:18:58;97417.89;;;-3.40;100.00
50011;BME280;35899;50.352;19.390;2024-01-07T09:21:25;97422.77;;;-3.39;100.00
50011;BME280;35899;50.352;19.390;2024-01-07T09:23:52;97424.58;;;-3.37;100.00
50011;BME280;35899;50.352;19.390;2024-01-07T09:26:18;97422.13;;;-3.33;100.00
50011;BME280;35899;50.352;19.390;2024-01-07T09:28:45;97419.17;;;-3.29;100.00
50011;BME280;35899;50.352;19.390;2024-01-07T09:31:11;97422.12;;;-3.25;100.00
50011;BME280;35899;50.352;19.390;2024-01-07T09:33:38;97421.65;;;-3.19;100.00
50011;BME280;35899;50.352;19.390;2024-01-07T09:36:07;97422.41;;;-3.15;100.00
50011;BME280;35899;50.352;19.390;2024-01-07T09:38:52;97422.77;;;-3.17;100.00
50011;BME280;35899;50.352;19.390;2024-01-07T09:41:19;97422.67;;;-3.12;100.00
50011;BME280;35899;50.352;19.390;2024-01-07T09:43:46;97421.17;;;-3.06;100.00
50011;BME280;35899;50.352;19.390;2024-01-07T09:46:13;97416.02;;;-3.03;100.00
50011;BME280;35899;50.352;19.390;2024-01-07T09:48:40;97415.75;;;-2.99;100.00
50011;BME280;35899;50.352;19.390;2024-01-07T09:51:08;97415.70;;;-2.97;100.00
50011;BME280;35899;50.352;19.390;2024-01-07T09:53:39;97415.61;;;-2.93;100.00
50011;BME280;35899;50.352;19.390;2024-01-07T09:56:21;97417.10;;;-2.92;100.00
50011;BME280;35899;50.352;19.390;2024-01-07T09:58:50;97413.27;;;-2.94;100.00
50011;BME280;35899;50.352;19.390;2024-01-07T10:01:17;97414.41;;;-2.86;100.00
50011;BME280;35899;50.352;19.390;2024-01-07T10:03:44;97418.86;;;-2.81;100.00
50011;BME280;35899;50.352;19.390;2024-01-07T10:06:11;97417.86;;;-2.75;100.00
50011;BME280;35899;50.352;19.390;2024-01-07T10:08:38;97415.67;;;-2.68;100.00
50011;BME280;35899;50.352;19.390;2024-01-07T10:11:05;97414.08;;;-2.65;100.00
50011;BME280;35899;50.352;19.390;2024-01-07T10:13:34;97418.21;;;-2.55;100.00
50011;BME280;35899;50.352;19.390;2024-01-07T10:16:01;97417.54;;;-2.48;100.00
50011;BME280;35899;50.352;19.390;2024-01-07T10:18:27;97417.55;;;-2.49;100.00
50011;BME280;35899;50.352;19.390;2024-01-07T10:20:54;97418.41;;;-2.49;100.00
50011;BME280;35899;50.352;19.390;2024-01-07T10:23:21;97414.88;;;-2.50;100.00
50011;BME280;35899;50.352;19.390;2024-01-07T10:25:47;97412.66;;;-2.50;100.00
50011;BME280;35899;50.352;19.390;2024-01-07T10:28:14;97406.63;;;-2.46;100.00
50011;BME280;35899;50.352;19.390;2024-01-07T10:30:48;97405.70;;;-2.49;100.00
50011;BME280;35899;50.352;19.390;2024-01-07T10:33:16;97399.58;;;-2.43;100.00
50011;BME280;35899;50.352;19.390;2024-01-07T10:35:48;97400.09;;;-2.36;100.00
50011;BME280;35899;50.352;19.390;2024-01-07T10:38:20;97399.59;;;-2.36;100.00
50011;BME280;35899;50.352;19.390;2024-01-07T10:40:47;97396.65;;;-2.27;100.00
50011;BME280;35899;50.352;19.390;2024-01-07T10:43:15;97402.65;;;-2.24;100.00
50011;BME280;35899;50.352;19.390;2024-01-07T10:45:44;97407.07;;;-2.24;100.00
50011;BME280;35899;50.352;19.390;2024-01-07T10:48:16;97407.76;;;-2.31;100.00
50011;BME280;35899;50.352;19.390;2024-01-07T10:50:45;97408.66;;;-2.39;100.00
50011;BME280;35899;50.352;19.390;2024-01-07T10:53:18;97417.88;;;-2.42;100.00
50011;BME280;35899;50.352;19.390;2024-01-07T10:55:53;97416.21;;;-2.37;100.00
50011;BME280;35899;50.352;19.390;2024-01-07T10:58:23;97415.45;;;-2.33;100.00
50011;BME280;35899;50.352;19.390;2024-01-07T11:00:51;97413.17;;;-2.37;100.00
50011;BME280;35899;50.352;19.390;2024-01-07T11:03:38;97409.66;;;-2.39;100.00
50011;BME280;35899;50.352;19.390;2024-01-07T11:06:51;97408.48;;;-2.39;100.00
50011;BME280;35899;50.352;19.390;2024-01-07T11:09:22;97407.23;;;-2.36;100.00
50011;BME280;35899;50.352;19.390;2024-01-07T11:11:53;97405.42;;;-2.39;100.00
50011;BME280;35899;50.352;19.390;2024-01-07T11:14:40;97401.09;;;-2.35;100.00
50011;BME280;35899;50.352;19.390;2024-01-07T11:17:07;97402.33;;;-2.30;100.00
50011;BME280;35899;50.352;19.390;2024-01-07T11:19:38;97403.61;;;-2.41;100.00
50011;BME280;35899;50.352;19.390;2024-01-07T11:22:31;97407.74;;;-2.43;100.00
50011;BME280;35899;50.352;19.390;2024-01-07T11:24:59;97409.52;;;-2.41;100.00
50011;BME280;35899;50.352;19.390;2024-01-07T11:27:28;97408.47;;;-2.39;100.00
50011;BME280;35899;50.352;19.390;2024-01-07T11:29:56;97410.19;;;-2.46;100.00
50011;BME280;35899;50.352;19.390;2024-01-07T11:32:23;97415.03;;;-2.50;100.00
50011;BME280;35899;50.352;19.390;2024-01-07T11:34:51;97420.30;;;-2.50;100.00
50011;BME280;35899;50.352;19.390;2024-01-07T11:37:18;97428.91;;;-2.49;100.00
50011;BME280;35899;50.352;19.390;2024-01-07T11:39:45;97426.58;;;-2.51;100.00
50011;BME280;35899;50.352;19.390;2024-01-07T11:42:12;97430.17;;;-2.52;100.00
50011;BME280;35899;50.352;19.390;2024-01-07T11:44:50;97427.02;;;-2.48;100.00
50011;BME280;35899;50.352;19.390;2024-01-07T11:47:18;97429.14;;;-2.39;100.00
50011;BME280;35899;50.352;19.390;2024-01-07T11:49:45;97430.95;;;-2.30;100.00
50011;BME280;35899;50.352;19.390;2024-01-07T11:52:12;97429.23;;;-2.22;100.00
50011;BME280;35899;50.352;19.390;2024-01-07T11:54:40;97431.22;;;-2.21;100.00
50011;BME280;35899;50.352;19.390;2024-01-07T11:57:06;97430.13;;;-2.12;100.00
50011;BME280;35899;50.352;19.390;2024-01-07T11:59:34;97426.77;;;-2.01;100.00
50011;BME280;35899;50.352;19.390;2024-01-07T12:02:01;97430.20;;;-1.96;100.00
50011;BME280;35899;50.352;19.390;2024-01-07T12:04:27;97428.59;;;-2.00;100.00
50011;BME280;35899;50.352;19.390;2024-01-07T12:06:54;97426.45;;;-2.02;100.00
50011;BME280;35899;50.352;19.390;2024-01-07T12:09:20;97427.61;;;-2.00;100.00
50011;BME280;35899;50.352;19.390;2024-01-07T12:11:54;97429.60;;;-2.05;100.00
50011;BME280;35899;50.352;19.390;2024-01-07T12:14:21;97427.61;;;-2.19;100.00
50011;BME280;35899;50.352;19.390;2024-01-07T12:16:48;97429.89;;;-2.28;100.00
50011;BME280;35899;50.352;19.390;2024-01-07T12:19:15;97431.76;;;-2.22;100.00
50011;BME280;35899;50.352;19.390;2024-01-07T12:21:41;97431.16;;;-2.25;100.00
50011;BME280;35899;50.352;19.390;2024-01-07T12:24:08;97431.83;;;-2.31;100.00
50011;BME280;35899;50.352;19.390;2024-01-07T12:26:38;97431.29;;;-2.30;100.00
50011;BME280;35899;50.352;19.390;2024-01-07T12:29:05;97431.23;;;-2.28;100.00
50011;BME280;35899;50.352;19.390;2024-01-07T12:31:32;97430.94;;;-2.29;100.00
50011;BME280;35899;50.352;19.390;2024-01-07T12:33:59;97432.67;;;-2.19;100.00
50011;BME280;35899;50.352;19.390;2024-01-07T12:36:26;97434.48;;;-2.10;100.00
50011;BME280;35899;50.352;19.390;2024-01-07T12:38:53;97436.88;;;-2.11;100.00
50011;BME280;35899;50.352;19.390;2024-01-07T12:41:20;97439.35;;;-2.21;100.00